createdAt,value
2018-09-29T00:01:20.428Z,57.90
2018-09-29T00:03:48.938Z,57.90
2018-09-29T00:06:17.446Z,57.90
2018-09-29T00:08:45.956Z,58.30
2018-09-29T00:11:14.477Z,58.50
2018-09-29T00:13:42.997Z,59.20
2018-09-29T00:16:11.538Z,58.40
2018-09-29T00:18:40.066Z,58.40
2018-09-29T00:21:08.633Z,58.40
2018-09-29T00:23:37.190Z,58.40
2018-09-29T00:26:05.709Z,58.30
2018-09-29T00:28:34.256Z,58.40
2018-09-29T00:31:02.815Z,58.40
2018-09-29T00:33:31.364Z,58.40
2018-09-29T00:35:59.877Z,58.30
2018-09-29T00:38:28.476Z,58.20
2018-09-29T00:40:57.561Z,58.70
2018-09-29T00:43:26.161Z,58.50
2018-09-29T00:45:54.730Z,58.40
2018-09-29T00:48:23.277Z,58.20
2018-09-29T00:50:51.899Z,58.20
2018-09-29T00:53:20.382Z,58.70
2018-09-29T00:55:48.845Z,59.00
2018-09-29T00:58:17.337Z,60.50
2018-09-29T01:00:45.840Z,60.30
2018-09-29T01:03:14.352Z,59.80
2018-09-29T01:05:42.921Z,59.20
2018-09-29T01:08:11.430Z,59.10
2018-09-29T01:10:39.934Z,58.90
2018-09-29T01:13:08.469Z,59.20
2018-09-29T01:15:36.968Z,59.60
2018-09-29T01:18:05.599Z,59.70
2018-09-29T01:20:34.056Z,59.50
2018-09-29T01:23:02.620Z,59.80
2018-09-29T01:25:31.222Z,59.60
2018-09-29T01:27:59.748Z,59.70
2018-09-29T01:30:28.932Z,60.60
2018-09-29T01:32:57.641Z,60.40
2018-09-29T01:35:26.285Z,60.50
2018-09-29T01:37:54.755Z,60.40
2018-09-29T01:40:23.334Z,60.50
2018-09-29T01:42:51.787Z,59.90
2018-09-29T01:45:20.290Z,60.80
2018-09-29T01:47:48.795Z,61.30
2018-09-29T01:50:17.286Z,61.70
2018-09-29T01:52:45.740Z,61.30
2018-09-29T01:55:14.213Z,61.20
2018-09-29T01:57:42.656Z,61.50
2018-09-29T02:00:11.540Z,61.70
2018-09-29T02:02:40.025Z,61.40
2018-09-29T02:05:08.536Z,61.50
2018-09-29T02:07:37.042Z,61.40
2018-09-29T02:10:05.589Z,61.30
2018-09-29T02:12:34.127Z,61.40
2018-09-29T02:15:02.741Z,61.00
2018-09-29T02:17:31.441Z,61.20
2018-09-29T02:19:59.995Z,61.30
2018-09-29T02:22:29.539Z,61.10
2018-09-29T02:24:58.289Z,61.40
2018-09-29T02:27:26.906Z,62.10
2018-09-29T02:29:55.502Z,62.30
2018-09-29T02:32:24.072Z,62.20
2018-09-29T02:34:52.509Z,62.20
2018-09-29T02:37:21.015Z,62.10
2018-09-29T02:39:49.530Z,61.90
2018-09-29T02:42:18.044Z,61.80
2018-09-29T02:44:46.513Z,63.60
2018-09-29T02:47:15.053Z,64.10
2018-09-29T02:49:43.658Z,62.50
2018-09-29T02:52:12.242Z,62.10
2018-09-29T02:54:40.700Z,62.00
2018-09-29T02:57:09.440Z,61.50
2018-09-29T02:59:37.981Z,61.70
2018-09-29T03:02:06.546Z,61.50
2018-09-29T03:04:35.132Z,61.00
2018-09-29T03:07:03.586Z,61.00
2018-09-29T03:09:32.191Z,61.00
2018-09-29T03:12:02.311Z,62.20
2018-09-29T03:14:31.043Z,63.00
2018-09-29T03:16:59.615Z,63.50
2018-09-29T03:19:28.637Z,63.60
2018-09-29T03:21:57.331Z,63.60
2018-09-29T03:24:26.124Z,62.00
2018-09-29T03:26:55.664Z,61.60
2018-09-29T03:29:24.421Z,61.90
2018-09-29T03:31:52.981Z,62.70
2018-09-29T03:34:21.439Z,65.00
2018-09-29T03:36:56.543Z,64.10
2018-09-29T03:39:25.110Z,64.70
2018-09-29T03:41:53.708Z,66.20
2018-09-29T03:44:22.204Z,66.20
2018-09-29T03:46:50.776Z,66.80
2018-09-29T03:49:19.239Z,67.40
2018-09-29T03:51:47.705Z,67.30
2018-09-29T03:54:16.250Z,67.40
2018-09-29T03:56:44.809Z,68.00
2018-09-29T03:59:13.320Z,67.30
2018-09-29T04:01:41.836Z,67.30
2018-09-29T04:04:10.309Z,67.20
2018-09-29T04:06:38.812Z,67.20
2018-09-29T04:09:07.777Z,67.20
2018-09-29T04:11:36.325Z,67.30
2018-09-29T04:14:04.850Z,67.20
2018-09-29T04:16:34.196Z,67.10
2018-09-29T04:19:02.750Z,68.00
2018-09-29T04:21:45.754Z,67.50
2018-09-29T04:24:14.621Z,68.80
2018-09-29T04:26:43.400Z,69.20
2018-09-29T04:29:12.697Z,69.20
2018-09-29T04:31:41.813Z,68.50
2018-09-29T04:34:10.808Z,69.70
2018-09-29T04:36:39.319Z,68.60
2018-09-29T04:39:09.864Z,69.80
2018-09-29T04:41:38.827Z,69.00
2018-09-29T04:44:07.781Z,68.30
2018-09-29T04:46:36.213Z,68.60
2018-09-29T04:49:04.801Z,68.40
2018-09-29T04:51:33.290Z,69.00
2018-09-29T04:54:01.857Z,69.50
2018-09-29T04:56:30.797Z,69.10
2018-09-29T04:58:59.380Z,69.80
2018-09-29T05:01:28.525Z,70.30
2018-09-29T05:03:57.218Z,71.00
2018-09-29T05:06:26.660Z,70.60
2018-09-29T05:08:57.002Z,70.90
2018-09-29T05:11:25.621Z,70.70
2018-09-29T05:13:54.256Z,70.00
2018-09-29T05:16:22.725Z,70.00
2018-09-29T05:18:51.185Z,70.00
2018-09-29T05:21:19.701Z,70.00
2018-09-29T05:23:48.220Z,70.20
2018-09-29T05:26:16.681Z,70.00
2018-09-29T05:28:45.309Z,70.60
2018-09-29T05:31:14.394Z,70.30
2018-09-29T05:33:43.201Z,70.10
2018-09-29T05:36:11.805Z,70.90
2018-09-29T05:38:41.132Z,70.90
2018-09-29T05:41:10.896Z,70.70
2018-09-29T05:43:40.695Z,70.90
2018-09-29T05:46:11.679Z,70.00
2018-09-29T05:48:40.189Z,71.00
2018-09-29T05:51:09.115Z,71.30
2018-09-29T05:53:37.661Z,72.40
2018-09-29T05:56:06.178Z,71.70
2018-09-29T05:58:35.822Z,71.00
2018-09-29T06:01:04.422Z,71.20
2018-09-29T06:03:33.046Z,71.20
2018-09-29T06:06:01.629Z,71.40
2018-09-29T06:08:30.173Z,70.40
2018-09-29T06:10:58.700Z,71.30
2018-09-29T06:13:27.364Z,71.10
2018-09-29T06:15:56.238Z,70.10
2018-09-29T06:18:24.791Z,70.00
2018-09-29T06:20:53.383Z,69.70
2018-09-29T06:23:21.812Z,69.50
2018-09-29T06:25:50.395Z,69.70
2018-09-29T06:28:18.891Z,69.00
2018-09-29T06:30:47.507Z,70.00
2018-09-29T06:33:16.659Z,70.00
2018-09-29T06:35:45.169Z,70.30
2018-09-29T06:38:30.272Z,70.20
2018-09-29T06:40:58.809Z,70.40
2018-09-29T06:43:27.348Z,67.20
2018-09-29T06:45:55.972Z,63.10
2018-09-29T06:48:24.572Z,61.90
2018-09-29T06:50:53.088Z,62.10
2018-09-29T06:53:21.555Z,61.30
2018-09-29T06:55:50.548Z,60.70
2018-09-29T06:58:19.152Z,58.70
2018-09-29T07:00:47.726Z,60.20
2018-09-29T07:03:16.274Z,57.50
2018-09-29T07:05:44.787Z,57.50
2018-09-29T07:10:43.658Z,56.90
2018-09-29T07:13:12.226Z,55.90
2018-09-29T07:15:40.835Z,55.60
2018-09-29T07:18:09.406Z,55.20
2018-09-29T07:20:37.989Z,55.30
2018-09-29T07:23:06.713Z,54.80
2018-09-29T07:25:35.363Z,54.50
2018-09-29T07:28:03.841Z,54.60
2018-09-29T07:30:32.423Z,54.60
2018-09-29T07:33:01.173Z,54.40
2018-09-29T07:35:30.139Z,54.20
2018-09-29T07:37:59.212Z,53.80
2018-09-29T07:40:27.785Z,53.80
2018-09-29T07:42:56.642Z,53.70
2018-09-29T07:45:27.196Z,53.30
2018-09-29T07:47:57.224Z,53.40
2018-09-29T07:50:25.982Z,53.30
2018-09-29T07:52:54.432Z,53.30
2018-09-29T07:55:22.945Z,52.70
2018-09-29T07:57:51.466Z,52.80
2018-09-29T08:00:20.033Z,52.60
2018-09-29T08:02:48.622Z,50.90
2018-09-29T08:05:17.135Z,50.50
2018-09-29T08:07:45.704Z,50.70
2018-09-29T08:10:14.202Z,50.70
2018-09-29T08:12:42.866Z,50.60
2018-09-29T08:15:11.523Z,50.70
2018-09-29T08:17:40.340Z,50.70
2018-09-29T08:20:08.862Z,51.30
2018-09-29T08:22:37.333Z,50.60
2018-09-29T08:25:05.796Z,50.60
2018-09-29T08:27:34.381Z,50.60
2018-09-29T08:30:03.521Z,50.60
2018-09-29T08:32:32.185Z,50.60
2018-09-29T08:35:00.851Z,50.50
2018-09-29T08:37:29.553Z,50.60
2018-09-29T08:39:58.781Z,50.60
2018-09-29T08:42:27.519Z,50.60
2018-09-29T08:44:56.932Z,50.70
2018-09-29T08:47:25.672Z,50.80
2018-09-29T08:49:54.424Z,50.80
2018-09-29T08:52:23.183Z,50.40
2018-09-29T08:54:51.746Z,50.20
2018-09-29T08:57:20.242Z,50.50
2018-09-29T08:59:48.784Z,50.30
2018-09-29T09:02:17.361Z,49.70
2018-09-29T09:04:45.805Z,50.30
2018-09-29T09:07:21.074Z,50.70
2018-09-29T09:09:49.553Z,51.00
2018-09-29T09:12:18.093Z,49.50
2018-09-29T09:14:46.644Z,49.30
2018-09-29T09:17:15.241Z,48.90
2018-09-29T09:19:43.698Z,49.60
2018-09-29T09:22:12.219Z,49.60
2018-09-29T09:24:40.697Z,49.30
2018-09-29T09:27:09.251Z,49.20
2018-09-29T09:29:37.786Z,48.50
2018-09-29T09:32:06.517Z,48.80
2018-09-29T09:34:34.976Z,48.90
2018-09-29T09:37:03.461Z,49.30
2018-09-29T09:39:32.156Z,48.40
2018-09-29T09:42:01.621Z,48.50
2018-09-29T09:44:30.296Z,48.00
2018-09-29T09:46:59.128Z,48.70
2018-09-29T09:49:27.809Z,47.80
2018-09-29T09:51:56.598Z,48.50
2018-09-29T09:54:25.634Z,47.30
2018-09-29T09:56:54.182Z,46.60
2018-09-29T09:59:22.690Z,46.00
2018-09-29T10:01:56.741Z,46.40
2018-09-29T10:04:25.324Z,47.70
2018-09-29T10:06:53.811Z,46.90
2018-09-29T10:09:22.422Z,45.50
2018-09-29T10:11:50.960Z,45.40
2018-09-29T10:14:19.462Z,44.60
2018-09-29T10:16:48.016Z,44.10
2018-09-29T10:19:16.590Z,44.30
2018-09-29T10:21:45.146Z,43.40
2018-09-29T10:24:13.710Z,43.40
2018-09-29T10:26:42.391Z,43.50
2018-09-29T10:29:10.907Z,43.00
2018-09-29T10:31:39.612Z,43.30
2018-09-29T10:34:08.083Z,41.40
2018-09-29T10:36:36.653Z,40.90
2018-09-29T10:39:08.051Z,40.80
2018-09-29T10:41:36.641Z,40.20
2018-09-29T10:44:06.031Z,38.90
2018-09-29T10:46:34.501Z,37.90
2018-09-29T10:49:03.456Z,37.30
2018-09-29T10:51:32.122Z,37.00
2018-09-29T10:54:01.009Z,37.80
2018-09-29T10:56:30.339Z,37.30
2018-09-29T10:58:59.421Z,36.60
2018-09-29T11:01:28.275Z,36.50
2018-09-29T11:03:57.065Z,37.00
2018-09-29T11:06:25.684Z,36.40
2018-09-29T11:08:54.405Z,35.10
2018-09-29T11:11:22.914Z,35.30
2018-09-29T11:13:51.397Z,34.90
2018-09-29T11:16:19.968Z,35.20
2018-09-29T11:18:48.548Z,35.30
2018-09-29T11:21:17.045Z,34.20
2018-09-29T11:23:46.622Z,35.30
2018-09-29T11:26:15.914Z,35.30
2018-09-29T11:28:44.513Z,34.90
2018-09-29T11:31:13.022Z,35.00
2018-09-29T11:33:41.814Z,34.70
2018-09-29T11:36:10.301Z,34.80
2018-09-29T11:38:38.877Z,35.00
2018-09-29T11:41:07.589Z,33.90
2018-09-29T11:43:36.337Z,33.90
2018-09-29T11:46:04.947Z,34.00
2018-09-29T11:48:34.400Z,33.90
2018-09-29T11:51:03.233Z,34.00
2018-09-29T11:53:31.871Z,34.50
2018-09-29T11:56:00.451Z,36.00
2018-09-29T11:58:29.683Z,34.90
2018-09-29T12:00:58.366Z,35.90
2018-09-29T12:03:27.687Z,34.10
2018-09-29T12:05:56.371Z,32.90
2018-09-29T12:08:24.951Z,32.20
2018-09-29T12:10:53.782Z,32.90
2018-09-29T12:13:22.727Z,33.30
2018-09-29T12:15:51.530Z,34.00
2018-09-29T12:18:20.080Z,33.90
2018-09-29T12:20:48.757Z,32.70
2018-09-29T12:23:17.331Z,32.50
2018-09-29T12:25:46.015Z,32.90
2018-09-29T12:28:14.584Z,32.70
2018-09-29T12:30:43.184Z,32.40
2018-09-29T12:33:11.730Z,33.40
2018-09-29T12:35:40.310Z,34.10
2018-09-29T12:38:08.729Z,34.20
2018-09-29T12:40:37.237Z,34.20
2018-09-29T12:43:05.736Z,34.20
2018-09-29T12:45:34.324Z,34.30
2018-09-29T12:48:02.990Z,34.20
2018-09-29T12:50:31.749Z,34.20
2018-09-29T12:53:00.421Z,34.30
2018-09-29T12:55:29.225Z,33.90
2018-09-29T12:57:57.964Z,33.80
2018-09-29T13:00:26.953Z,33.90
2018-09-29T13:02:55.534Z,32.90
2018-09-29T13:05:24.114Z,32.50
2018-09-29T13:07:52.695Z,33.00
2018-09-29T13:10:21.553Z,33.30
2018-09-29T13:12:50.088Z,33.30
2018-09-29T13:15:18.887Z,33.00
2018-09-29T13:17:47.372Z,31.40
2018-09-29T13:20:15.919Z,30.10
2018-09-29T13:22:44.445Z,29.70
2018-09-29T13:25:13.019Z,29.60
2018-09-29T13:27:41.651Z,29.80
2018-09-29T13:30:10.292Z,30.00
2018-09-29T13:32:38.838Z,30.50
2018-09-29T13:35:07.405Z,30.30
2018-09-29T13:37:36.004Z,29.90
2018-09-29T13:40:04.542Z,30.80
2018-09-29T13:42:33.080Z,29.90
2018-09-29T13:45:01.963Z,29.90
2018-09-29T13:47:33.010Z,29.80
2018-09-29T13:50:02.036Z,29.90
2018-09-29T13:52:30.807Z,30.40
2018-09-29T13:54:59.524Z,30.40
2018-09-29T13:57:28.231Z,30.40
2018-09-29T13:59:56.850Z,29.80
2018-09-29T14:02:25.523Z,29.40
2018-09-29T14:04:54.094Z,29.90
2018-09-29T14:07:22.666Z,29.90
2018-09-29T14:09:51.149Z,29.30
2018-09-29T14:12:19.636Z,29.60
2018-09-29T14:14:48.182Z,29.90
2018-09-29T14:17:48.552Z,30.00
2018-09-29T14:23:47.076Z,29.90
2018-09-29T14:26:15.646Z,29.90
2018-09-29T14:28:44.128Z,28.80
2018-09-29T14:31:12.660Z,28.70
2018-09-29T14:33:41.337Z,28.70
2018-09-29T14:36:09.921Z,29.10
2018-09-29T14:38:38.449Z,29.10
2018-09-29T14:41:07.163Z,28.70
2018-09-29T14:43:35.673Z,28.50
2018-09-29T14:46:04.258Z,28.40
2018-09-29T14:48:32.965Z,28.50
2018-09-29T14:51:02.093Z,28.40
2018-09-29T14:53:30.842Z,28.30
2018-09-29T14:55:59.568Z,28.60
2018-09-29T14:58:28.322Z,28.40
2018-09-29T15:00:57.486Z,28.40
2018-09-29T15:03:26.920Z,28.50
2018-09-29T15:05:55.896Z,28.70
2018-09-29T15:08:24.549Z,28.60
2018-09-29T15:10:53.223Z,28.70
2018-09-29T15:13:21.961Z,28.60
2018-09-29T15:15:50.897Z,28.60
2018-09-29T15:18:19.577Z,28.40
2018-09-29T15:20:48.107Z,28.00
2018-09-29T15:23:16.742Z,28.10
2018-09-29T15:25:45.228Z,28.30
2018-09-29T15:28:13.781Z,28.30
2018-09-29T15:30:42.283Z,28.40
2018-09-29T15:33:10.805Z,28.40
2018-09-29T15:35:39.308Z,28.30
2018-09-29T15:38:08.256Z,28.30
2018-09-29T15:40:36.897Z,28.50
2018-09-29T15:43:05.501Z,28.70
2018-09-29T15:45:34.011Z,29.10
2018-09-29T15:48:02.633Z,29.20
2018-09-29T15:50:31.377Z,29.40
2018-09-29T15:53:00.296Z,29.40
2018-09-29T15:55:29.152Z,29.40
2018-09-29T15:57:58.030Z,29.60
2018-09-29T16:00:26.739Z,29.50
2018-09-29T16:02:55.612Z,29.50
2018-09-29T16:05:24.307Z,29.40
2018-09-29T16:07:52.990Z,29.50
2018-09-29T16:10:21.590Z,29.50
2018-09-29T16:12:50.144Z,30.10
2018-09-29T16:15:18.665Z,30.10
2018-09-29T16:17:47.275Z,30.00
2018-09-29T16:20:15.841Z,30.30
2018-09-29T16:22:44.318Z,30.30
2018-09-29T16:25:12.891Z,30.60
2018-09-29T16:27:41.553Z,30.90
2018-09-29T16:30:10.100Z,31.00
2018-09-29T16:32:38.621Z,31.10
2018-09-29T16:35:07.063Z,31.20
2018-09-29T16:37:35.750Z,31.00
2018-09-29T16:40:04.314Z,31.20
2018-09-29T16:42:32.839Z,31.40
2018-09-29T16:45:01.477Z,31.70
2018-09-29T16:47:30.010Z,31.80
2018-09-29T16:49:58.837Z,32.30
2018-09-29T16:52:28.357Z,32.40
2018-09-29T16:54:57.618Z,33.70
2018-09-29T16:57:27.571Z,33.70
2018-09-29T16:59:57.228Z,33.60
2018-09-29T17:02:26.343Z,34.90
2018-09-29T17:04:56.122Z,35.80
2018-09-29T17:07:25.304Z,36.20
2018-09-29T17:09:53.888Z,36.90
2018-09-29T17:12:22.822Z,37.70
2018-09-29T17:14:51.975Z,38.00
2018-09-29T17:17:20.941Z,38.70
2018-09-29T17:19:49.650Z,39.60
2018-09-29T17:22:18.168Z,41.00
2018-09-29T17:24:47.162Z,43.10
2018-09-29T17:27:15.652Z,44.50
2018-09-29T17:29:44.190Z,45.60
2018-09-29T17:32:12.749Z,46.30
2018-09-29T17:34:41.298Z,46.20
2018-09-29T17:37:10.217Z,46.40
2018-09-29T17:39:39.308Z,46.70
2018-09-29T17:42:09.251Z,46.70
2018-09-29T17:44:39.238Z,46.50
2018-09-29T17:47:09.327Z,46.60
2018-09-29T17:49:38.848Z,46.70
2018-09-29T17:52:07.821Z,46.70
2018-09-29T17:54:37.292Z,47.00
2018-09-29T17:57:06.860Z,46.80
2018-09-29T17:59:36.000Z,47.20
2018-09-29T18:02:05.227Z,47.30
2018-09-29T18:04:34.238Z,47.70
2018-09-29T18:07:03.519Z,48.00
2018-09-29T18:09:32.671Z,47.70
2018-09-29T18:12:01.797Z,48.00
2018-09-29T18:14:30.452Z,48.40
2018-09-29T18:16:59.126Z,48.60
2018-09-29T18:19:27.928Z,50.60
2018-09-29T18:21:56.481Z,51.20
2018-09-29T18:24:25.198Z,51.80
2018-09-29T18:26:53.753Z,52.20
2018-09-29T18:29:22.504Z,52.40
2018-09-29T18:31:51.301Z,52.20
2018-09-29T18:34:21.029Z,52.40
2018-09-29T18:36:49.825Z,52.50
2018-09-29T18:39:18.591Z,52.70
2018-09-29T18:41:47.450Z,52.90
2018-09-29T18:44:16.092Z,53.10
2018-09-29T18:46:44.721Z,53.50
2018-09-29T18:49:15.605Z,53.50
2018-09-29T18:51:46.325Z,53.60
2018-09-29T18:54:15.517Z,54.10
2018-09-29T18:56:50.817Z,54.20
2018-09-29T18:59:19.602Z,54.30
2018-09-29T19:01:49.599Z,54.60
2018-09-29T19:04:18.481Z,55.60
2018-09-29T19:06:47.071Z,55.60
2018-09-29T19:09:16.166Z,55.50
2018-09-29T19:11:46.485Z,55.60
2018-09-29T19:14:17.381Z,56.30
2018-09-29T19:16:45.998Z,56.90
2018-09-29T19:19:14.763Z,57.10
2018-09-29T19:21:43.570Z,56.60
2018-09-29T19:24:12.095Z,56.50
2018-09-29T19:26:40.915Z,56.70
2018-09-29T19:29:09.421Z,56.80
2018-09-29T19:31:38.297Z,57.10
2018-09-29T19:34:06.950Z,56.50
2018-09-29T19:36:35.707Z,56.40
2018-09-29T19:39:05.988Z,56.50
2018-09-29T19:41:34.600Z,57.60
2018-09-29T19:44:03.157Z,57.20
2018-09-29T19:46:31.851Z,58.00
2018-09-29T19:49:00.519Z,58.00
2018-09-29T19:51:29.403Z,58.00
2018-09-29T19:53:58.133Z,58.00
2018-09-29T19:56:26.975Z,58.00
2018-09-29T19:58:55.581Z,58.00
2018-09-29T20:01:24.114Z,57.90
2018-09-29T20:03:52.663Z,57.90
2018-09-29T20:06:21.323Z,58.00
2018-09-29T20:08:49.914Z,57.90
2018-09-29T20:11:18.482Z,58.80
2018-09-29T20:13:48.050Z,57.80
2018-09-29T20:16:16.732Z,58.60
2018-09-29T20:18:46.723Z,59.00
2018-09-29T20:21:15.342Z,59.90
2018-09-29T20:23:43.904Z,59.30
2018-09-29T20:26:12.654Z,59.20
2018-09-29T20:28:41.319Z,59.60
2018-09-29T20:31:10.235Z,59.40
2018-09-29T20:33:38.774Z,59.00
2018-09-29T20:36:07.401Z,58.80
2018-09-29T20:38:36.060Z,59.00
2018-09-29T20:41:04.687Z,59.30
2018-09-29T20:43:33.444Z,59.50
2018-09-29T20:46:02.100Z,59.50
2018-09-29T20:48:31.137Z,60.00
2018-09-29T20:50:59.778Z,60.10
2018-09-29T20:53:28.411Z,59.90
2018-09-29T20:55:57.000Z,59.70
2018-09-29T20:58:25.809Z,60.30
2018-09-29T21:00:54.451Z,60.50
2018-09-29T21:03:23.058Z,61.00
2018-09-29T21:05:51.614Z,60.30
2018-09-29T21:08:20.113Z,60.20
2018-09-29T21:10:48.686Z,61.70
2018-09-29T21:13:17.288Z,61.20
2018-09-29T21:15:45.947Z,61.40
2018-09-29T21:18:14.806Z,60.60
2018-09-29T21:20:43.304Z,62.40
2018-09-29T21:23:11.828Z,62.30
2018-09-29T21:25:40.364Z,62.70
2018-09-29T21:28:09.012Z,62.90
2018-09-29T21:30:37.643Z,62.70
2018-09-29T21:33:06.358Z,62.80
2018-09-29T21:35:35.602Z,63.00
2018-09-29T21:38:04.224Z,63.10
2018-09-29T21:40:32.982Z,62.40
2018-09-29T21:43:01.710Z,62.60
2018-09-29T21:45:30.494Z,62.80
2018-09-29T21:47:59.494Z,62.90
2018-09-29T21:50:28.241Z,62.60
2018-09-29T21:52:57.130Z,63.60
2018-09-29T21:55:26.477Z,63.40
2018-09-29T21:57:55.125Z,63.60
2018-09-29T22:00:29.067Z,63.90
2018-09-29T22:02:57.767Z,63.80
2018-09-29T22:05:26.438Z,63.80
2018-09-29T22:07:56.076Z,64.40
2018-09-29T22:10:24.739Z,64.70
2018-09-29T22:12:53.591Z,64.30
2018-09-29T22:15:22.194Z,64.00
2018-09-29T22:17:51.202Z,64.40
2018-09-29T22:20:19.676Z,64.20
2018-09-29T22:22:48.181Z,64.60
2018-09-29T22:25:16.680Z,64.80
2018-09-29T22:27:45.226Z,64.80
2018-09-29T22:30:13.809Z,65.30
2018-09-29T22:32:42.352Z,65.10
2018-09-29T22:35:10.877Z,65.10
2018-09-29T22:37:39.559Z,65.50
2018-09-29T22:40:08.296Z,65.20
2018-09-29T22:42:36.824Z,64.80
2018-09-29T22:45:05.515Z,64.70
2018-09-29T22:47:34.065Z,64.50
2018-09-29T22:50:02.964Z,64.30
2018-09-29T22:52:31.580Z,65.20
2018-09-29T22:55:00.248Z,65.50
2018-09-29T22:57:28.833Z,65.50
2018-09-29T22:59:57.354Z,66.10
2018-09-29T23:02:26.013Z,65.80
2018-09-29T23:04:54.570Z,65.20
2018-09-29T23:07:23.145Z,66.80
2018-09-29T23:09:51.665Z,66.80
2018-09-29T23:12:20.228Z,66.70
2018-09-29T23:14:48.825Z,66.70
2018-09-29T23:17:17.375Z,66.80
2018-09-29T23:19:45.957Z,66.80
2018-09-29T23:22:14.513Z,66.70
2018-09-29T23:24:43.023Z,66.80
2018-09-29T23:27:11.683Z,65.50
2018-09-29T23:29:40.474Z,66.30
2018-09-29T23:32:09.019Z,66.30
2018-09-29T23:34:37.615Z,66.30
2018-09-29T23:37:06.150Z,66.80
2018-09-29T23:39:34.641Z,66.80
2018-09-29T23:42:03.137Z,66.70
2018-09-29T23:44:31.783Z,66.70
2018-09-29T23:47:00.377Z,66.70
2018-09-29T23:49:29.113Z,66.60
2018-09-29T23:51:57.880Z,66.70
2018-09-29T23:54:26.692Z,67.20
2018-09-29T23:56:55.475Z,67.10
2018-09-29T23:59:27.424Z,67.10
